Jacksonville International Airport Jacksonville US
ICAO: KJAX
IATA: JAX
Category: Large
Scheduled Services: Yes

Elevation: 30 ft
TransAlt. 18000 ft.

Airport Communications:
APP/DEP:118
ATIS:125.85
CLNC DEL:119.5
GND:121.9
ANG MAINT:25.125
ANG SOF:27.39
ANG COMD POST:25.125
TWR:118.3
UNICOM:122.95

KJAX Zoom In..

Runways:

(A) RW 08 length 10000 ft width 150 ft
ILS 110.70 / hdg 77

(B) RW 14 length 7701 ft width 150 ft
ILS 110.50 / hdg 137

(C) RW 26 length 10000 ft width 150 ft
ILS 110.30 / hdg 257

(D) RW 32 length 7701 ft width 150 ft
---- / hdg 317

Location; KJAX
Day. 25 / Time. 09.56 Zulu
* Altimeter: 29.89
* Temperature: 17° c. 62.6°f.
* Wind from: 260° Speed 05 kn.
Dewpoint: 16° c.
Visibility: 10 Statute Miles.
Clouds: Scattered 6000 ft.

KJAX 250956Z 26005KT 10SM SCT060 17/16 A2989 RMK AO2 SLP122 T01670156 $


Wind From 260°
Speed 05 kn.

  YouTube Music Video
 
jpsmedia.com for Web Design  worldairports.se 2018   terms of use